createdAt,value
2022-08-29T00:00:38.788Z,1133.28
2022-08-29T00:01:38.790Z,1133.36
2022-08-29T00:02:38.826Z,1133.39
2022-08-29T00:03:38.794Z,1133.43
2022-08-29T00:04:39.938Z,1133.49
2022-08-29T00:05:39.853Z,1133.51
2022-08-29T00:06:38.798Z,1133.58
2022-08-29T00:07:38.802Z,1133.63
2022-08-29T00:08:38.798Z,1133.64
2022-08-29T00:09:38.802Z,1133.71
2022-08-29T00:10:38.804Z,1133.7
2022-08-29T00:11:39.604Z,1133.75
2022-08-29T00:12:38.810Z,1133.77
2022-08-29T00:13:38.813Z,1133.76
2022-08-29T00:14:38.812Z,1133.82
2022-08-29T00:15:42.088Z,1133.85
2022-08-29T00:16:38.864Z,1133.89
2022-08-29T00:17:38.824Z,1133.94
2022-08-29T00:18:38.829Z,1134.03
2022-08-29T00:19:38.821Z,1134.11
2022-08-29T00:20:38.829Z,1134.12
2022-08-29T00:21:38.824Z,1134.15
2022-08-29T00:22:38.825Z,1134.17
2022-08-29T00:23:38.826Z,1134.2
2022-08-29T00:24:38.830Z,1134.18
2022-08-29T00:25:38.831Z,1134.17
2022-08-29T00:26:41.660Z,1134.21
2022-08-29T00:27:38.847Z,1134.22
2022-08-29T00:28:38.836Z,1134.29
2022-08-29T00:29:38.866Z,1134.25
2022-08-29T00:30:38.839Z,1134.25
2022-08-29T00:31:38.877Z,1134.3
2022-08-29T00:32:38.844Z,1134.3
2022-08-29T00:33:39.194Z,1134.34
2022-08-29T00:34:38.848Z,1134.39
2022-08-29T00:35:38.848Z,1134.34
2022-08-29T00:36:38.858Z,1134.39
2022-08-29T00:37:41.725Z,1134.44
2022-08-29T00:38:38.856Z,1134.47
2022-08-29T00:39:38.853Z,1134.47
2022-08-29T00:40:38.989Z,1134.44
2022-08-29T00:41:38.860Z,1134.45
2022-08-29T00:42:38.863Z,1134.47
2022-08-29T00:43:38.864Z,1134.46
2022-08-29T00:44:38.864Z,1134.43
2022-08-29T00:45:38.968Z,1134.42
2022-08-29T00:46:38.870Z,1134.43
2022-08-29T00:47:38.870Z,1134.43
2022-08-29T00:48:38.880Z,1134.41
2022-08-29T00:49:38.946Z,1134.35
2022-08-29T00:50:38.877Z,1134.39
2022-08-29T00:51:38.876Z,1134.41
2022-08-29T00:52:38.902Z,1134.36
2022-08-29T00:53:38.883Z,1134.34
2022-08-29T00:54:38.909Z,1134.33
2022-08-29T00:55:38.884Z,1134.4
2022-08-29T00:56:38.886Z,1134.42
2022-08-29T00:57:38.886Z,1134.41
2022-08-29T00:58:38.888Z,1134.41
2022-08-29T00:59:38.909Z,1134.43
2022-08-29T01:00:38.922Z,1134.37
2022-08-29T01:01:38.894Z,1134.37
2022-08-29T01:02:40.537Z,1134.41
2022-08-29T01:03:41.056Z,1134.37
2022-08-29T01:04:38.899Z,1134.32
2022-08-29T01:05:38.917Z,1134.37
2022-08-29T01:06:38.909Z,1134.31
2022-08-29T01:07:38.905Z,1134.32
2022-08-29T01:08:38.907Z,1134.33
2022-08-29T01:09:38.908Z,1134.32
2022-08-29T01:10:38.909Z,1134.33
2022-08-29T01:11:38.913Z,1134.32
2022-08-29T01:12:38.932Z,1134.38
2022-08-29T01:13:38.936Z,1134.38
2022-08-29T01:14:38.951Z,1134.32
2022-08-29T01:15:38.920Z,1134.24
2022-08-29T01:16:39.038Z,1134.28
2022-08-29T01:17:38.939Z,1134.38
2022-08-29T01:18:38.950Z,1134.33
2022-08-29T01:19:38.942Z,1134.33
2022-08-29T01:20:38.941Z,1134.37
2022-08-29T01:21:38.930Z,1134.36
2022-08-29T01:22:38.935Z,1134.43
2022-08-29T01:23:38.938Z,1134.38
2022-08-29T01:24:38.966Z,1134.38
2022-08-29T01:25:38.967Z,1134.32
2022-08-29T01:26:38.937Z,1134.35
2022-08-29T01:27:38.943Z,1134.35
2022-08-29T01:28:38.944Z,1134.34
2022-08-29T01:29:38.943Z,1134.31
2022-08-29T01:30:38.947Z,1134.32
2022-08-29T01:31:56.581Z,1134.26
2022-08-29T01:32:38.951Z,1134.29
2022-08-29T01:33:38.953Z,1134.25
2022-08-29T01:34:38.953Z,1134.32
2022-08-29T01:35:38.985Z,1134.27
2022-08-29T01:36:39.012Z,1134.29
2022-08-29T01:37:38.959Z,1134.25
2022-08-29T01:38:39.001Z,1134.27
2022-08-29T01:39:38.960Z,1134.27
2022-08-29T01:40:39.052Z,1134.2
2022-08-29T01:41:38.964Z,1134.23
2022-08-29T01:42:38.978Z,1134.15
2022-08-29T01:43:38.972Z,1134.13
2022-08-29T01:44:38.972Z,1134.12
2022-08-29T01:45:39.033Z,1134.08
2022-08-29T01:46:39.017Z,1134.07
2022-08-29T01:47:38.979Z,1134.03
2022-08-29T01:48:38.978Z,1133.97
2022-08-29T01:49:40.931Z,1133.94
2022-08-29T01:50:38.983Z,1133.88
2022-08-29T01:51:38.985Z,1133.78
2022-08-29T01:52:38.989Z,1133.8
2022-08-29T01:53:38.994Z,1133.75
2022-08-29T01:54:39.002Z,1133.72
2022-08-29T01:55:39.013Z,1133.69
2022-08-29T01:56:38.994Z,1133.67
2022-08-29T01:57:38.995Z,1133.64
2022-08-29T01:58:38.993Z,1133.61
2022-08-29T01:59:39.001Z,1133.67
2022-08-29T02:00:39.089Z,1133.62
2022-08-29T02:01:39.041Z,1133.67
2022-08-29T02:02:39.003Z,1133.63
2022-08-29T02:03:39.003Z,1133.66
2022-08-29T02:04:39.005Z,1133.71
2022-08-29T02:05:39.021Z,1133.7
2022-08-29T02:06:39.012Z,1133.75
2022-08-29T02:07:39.011Z,1133.68
2022-08-29T02:08:39.011Z,1133.66
2022-08-29T02:09:39.020Z,1133.61
2022-08-29T02:10:39.038Z,1133.6
2022-08-29T02:11:39.020Z,1133.51
2022-08-29T02:12:39.024Z,1133.55
2022-08-29T02:13:39.021Z,1133.45
2022-08-29T02:14:39.023Z,1133.45
2022-08-29T02:15:39.042Z,1133.36
2022-08-29T02:16:39.091Z,1133.35
2022-08-29T02:17:39.032Z,1133.31
2022-08-29T02:18:39.029Z,1133.26
2022-08-29T02:19:39.041Z,1133.19
2022-08-29T02:20:39.975Z,1133.15
2022-08-29T02:21:39.038Z,1133.07
2022-08-29T02:22:39.041Z,1133.07
2022-08-29T02:23:39.039Z,1133.02
2022-08-29T02:24:39.044Z,1132.96
2022-08-29T02:25:39.045Z,1132.9
2022-08-29T02:26:39.045Z,1132.87
2022-08-29T02:27:39.047Z,1132.77
2022-08-29T02:28:39.046Z,1132.73
2022-08-29T02:29:39.053Z,1132.57
2022-08-29T02:30:39.052Z,1132.45
2022-08-29T02:31:42.007Z,1132.36
2022-08-29T02:32:39.058Z,1132.35
2022-08-29T02:33:39.062Z,1132.31
2022-08-29T02:34:39.059Z,1132.18
2022-08-29T02:35:42.690Z,1132.23
2022-08-29T02:36:39.067Z,1132.14
2022-08-29T02:37:39.062Z,1132.16
2022-08-29T02:38:39.067Z,1132.13
2022-08-29T02:39:39.073Z,1132.17
2022-08-29T02:40:39.114Z,1132.24
2022-08-29T02:41:39.070Z,1132.24
2022-08-29T02:42:42.165Z,1132.23
2022-08-29T02:43:39.075Z,1132.16
2022-08-29T02:44:39.076Z,1132.11
2022-08-29T02:45:39.083Z,1132
2022-08-29T02:46:39.148Z,1132.03
2022-08-29T02:47:39.080Z,1131.98
2022-08-29T02:48:39.085Z,1131.94
2022-08-29T02:49:39.087Z,1131.84
2022-08-29T02:50:39.085Z,1131.9
2022-08-29T02:51:39.089Z,1131.85
2022-08-29T02:52:39.089Z,1131.8
2022-08-29T02:53:42.113Z,1131.83
2022-08-29T02:54:39.094Z,1131.81
2022-08-29T02:55:39.095Z,1131.79
2022-08-29T02:56:39.101Z,1131.76
2022-08-29T02:57:39.097Z,1131.8
2022-08-29T02:58:39.102Z,1131.81
2022-08-29T02:59:39.106Z,1131.73
2022-08-29T03:00:39.141Z,1131.81
2022-08-29T03:01:39.177Z,1131.8
2022-08-29T03:02:39.109Z,1131.68
2022-08-29T03:03:39.111Z,1131.54
2022-08-29T03:04:42.123Z,1131.63
2022-08-29T03:05:39.110Z,1131.51
2022-08-29T03:06:39.118Z,1131.49
2022-08-29T03:07:39.117Z,1131.38
2022-08-29T03:08:39.120Z,1131.22
2022-08-29T03:09:39.123Z,1131.24
2022-08-29T03:10:39.120Z,1131.19
2022-08-29T03:11:39.124Z,1131.17
2022-08-29T03:12:39.126Z,1131.05
2022-08-29T03:13:39.129Z,1131
2022-08-29T03:14:39.129Z,1130.98
2022-08-29T03:15:39.128Z,1130.93
2022-08-29T03:16:39.208Z,1130.83
2022-08-29T03:17:39.135Z,1130.79
2022-08-29T03:18:39.136Z,1130.55
2022-08-29T03:19:39.141Z,1130.43
2022-08-29T03:20:39.140Z,1130.32
2022-08-29T03:21:39.151Z,1130.17
2022-08-29T03:22:39.140Z,1129.97
2022-08-29T03:23:39.144Z,1129.88
2022-08-29T03:24:39.149Z,1129.64
2022-08-29T03:25:39.146Z,1129.48
2022-08-29T03:26:39.165Z,1129.32
2022-08-29T03:27:39.149Z,1129.02
2022-08-29T03:28:39.153Z,1128.88
2022-08-29T03:29:39.154Z,1128.65
2022-08-29T03:30:39.157Z,1128.44
2022-08-29T03:31:39.199Z,1128.25
2022-08-29T03:32:39.161Z,1128.07
2022-08-29T03:33:39.168Z,1127.91
2022-08-29T03:34:39.166Z,1127.8
2022-08-29T03:35:39.170Z,1127.72
2022-08-29T03:36:43.036Z,1127.6
2022-08-29T03:37:39.175Z,1127.36
2022-08-29T03:38:39.172Z,1127.37
2022-08-29T03:39:39.171Z,1127.25
2022-08-29T03:40:39.257Z,1127.28
2022-08-29T03:41:39.175Z,1127.16
2022-08-29T03:42:39.175Z,1127
2022-08-29T03:43:39.179Z,1126.99
2022-08-29T03:44:39.180Z,1126.9
2022-08-29T03:45:39.185Z,1126.78
2022-08-29T03:46:39.247Z,1126.79
2022-08-29T03:47:39.185Z,1126.81
2022-08-29T03:48:39.189Z,1126.62
2022-08-29T03:49:39.190Z,1126.56
2022-08-29T03:50:39.192Z,1126.62
2022-08-29T03:51:39.193Z,1126.5
2022-08-29T03:52:39.194Z,1126.55
2022-08-29T03:53:39.197Z,1126.52
2022-08-29T03:54:39.198Z,1126.45
2022-08-29T03:55:39.199Z,1126.42
2022-08-29T03:56:39.207Z,1126.41
2022-08-29T03:57:39.206Z,1126.31
2022-08-29T03:58:39.202Z,1126.26
2022-08-29T03:59:39.209Z,1126.1
2022-08-29T04:00:39.209Z,1126.09
2022-08-29T04:01:39.240Z,1125.98
2022-08-29T04:02:39.252Z,1125.87
2022-08-29T04:03:39.212Z,1125.74
2022-08-29T04:04:39.218Z,1125.51
2022-08-29T04:05:39.218Z,1125.32
2022-08-29T04:06:39.219Z,1125.27
2022-08-29T04:07:39.223Z,1125.19
2022-08-29T04:08:39.221Z,1125.17
2022-08-29T04:09:39.225Z,1125.08
2022-08-29T04:10:39.233Z,1125.13
2022-08-29T04:11:39.226Z,1125.15
2022-08-29T04:12:39.249Z,1125.1
2022-08-29T04:13:39.233Z,1125.1
2022-08-29T04:14:39.305Z,1125.14
2022-08-29T04:15:39.259Z,1125.06
2022-08-29T04:16:39.243Z,1125.06
2022-08-29T04:17:45.657Z,1125.05
2022-08-29T04:18:39.240Z,1125.04
2022-08-29T04:19:39.243Z,1124.99
2022-08-29T04:20:39.246Z,1124.95
2022-08-29T04:21:39.247Z,1124.91
2022-08-29T04:22:39.247Z,1125
2022-08-29T04:23:39.252Z,1124.91
2022-08-29T04:24:39.248Z,1124.85
2022-08-29T04:25:39.251Z,1125
2022-08-29T04:26:39.287Z,1125
2022-08-29T04:27:39.255Z,1125.1
2022-08-29T04:28:39.258Z,1125.07
2022-08-29T04:29:39.260Z,1125.1
2022-08-29T04:30:39.265Z,1125.04
2022-08-29T04:31:39.380Z,1125.05
2022-08-29T04:32:39.265Z,1124.9
2022-08-29T04:33:39.267Z,1124.85
2022-08-29T04:34:39.267Z,1124.95
2022-08-29T04:35:39.270Z,1124.87
2022-08-29T04:36:39.269Z,1124.85
2022-08-29T04:37:39.277Z,1124.86
2022-08-29T04:38:39.276Z,1124.84
2022-08-29T04:39:39.275Z,1124.89
2022-08-29T04:40:39.339Z,1124.84
2022-08-29T04:41:39.283Z,1124.96
2022-08-29T04:42:39.281Z,1124.86
2022-08-29T04:43:39.286Z,1124.85
2022-08-29T04:44:39.286Z,1125.06
2022-08-29T04:45:39.286Z,1125.18
2022-08-29T04:46:39.327Z,1125.23
2022-08-29T04:47:42.103Z,1125.25
2022-08-29T04:48:39.292Z,1125.24
2022-08-29T04:49:39.291Z,1125.42
2022-08-29T04:50:39.296Z,1125.45
2022-08-29T04:51:39.299Z,1125.57
2022-08-29T04:52:39.297Z,1125.57
2022-08-29T04:53:39.300Z,1125.68
2022-08-29T04:54:39.303Z,1125.78
2022-08-29T04:55:39.303Z,1125.75
2022-08-29T04:56:39.955Z,1125.79
2022-08-29T04:57:39.307Z,1125.82
2022-08-29T04:58:42.091Z,1125.84
2022-08-29T04:59:39.314Z,1125.77
2022-08-29T05:00:39.310Z,1125.84
2022-08-29T05:01:39.348Z,1125.77
2022-08-29T05:02:39.329Z,1125.71
2022-08-29T05:03:39.318Z,1125.97
2022-08-29T05:04:39.319Z,1126.07
2022-08-29T05:05:39.369Z,1126.12
2022-08-29T05:06:39.323Z,1126.26
2022-08-29T05:07:39.342Z,1126.3
2022-08-29T05:08:39.327Z,1126.52
2022-08-29T05:09:42.335Z,1126.69
2022-08-29T05:10:39.330Z,1126.69
2022-08-29T05:11:39.332Z,1126.76
2022-08-29T05:12:39.352Z,1126.81
2022-08-29T05:13:39.334Z,1126.85
2022-08-29T05:14:39.335Z,1126.9
2022-08-29T05:15:39.371Z,1127.06
2022-08-29T05:16:39.341Z,1127.21
2022-08-29T05:17:39.362Z,1127.26
2022-08-29T05:18:39.341Z,1127.31
2022-08-29T05:19:45.017Z,1127.46
2022-08-29T05:20:42.176Z,1127.48
2022-08-29T05:21:39.359Z,1127.37
2022-08-29T05:22:39.368Z,1127.54
2022-08-29T05:23:39.355Z,1127.63
2022-08-29T05:24:39.354Z,1127.66
2022-08-29T05:25:39.354Z,1127.68
2022-08-29T05:26:39.358Z,1127.77
2022-08-29T05:27:39.379Z,1127.82
2022-08-29T05:28:39.362Z,1127.9
2022-08-29T05:29:39.367Z,1128.08
2022-08-29T05:30:39.368Z,1128.25
2022-08-29T05:31:44.598Z,1128.4
2022-08-29T05:32:39.414Z,1128.64
2022-08-29T05:33:39.376Z,1128.79
2022-08-29T05:34:39.371Z,1129.03
2022-08-29T05:35:39.372Z,1129.22
2022-08-29T05:36:39.373Z,1129.35
2022-08-29T05:37:39.395Z,1129.55
2022-08-29T05:38:39.377Z,1129.67
2022-08-29T05:39:39.382Z,1129.81
2022-08-29T05:40:39.414Z,1129.93
2022-08-29T05:41:39.385Z,1130.25
2022-08-29T05:42:39.412Z,1130.4
2022-08-29T05:43:39.390Z,1130.56
2022-08-29T05:44:39.392Z,1130.66
2022-08-29T05:45:39.402Z,1130.92
2022-08-29T05:46:39.426Z,1131.16
2022-08-29T05:47:39.411Z,1131.32
2022-08-29T05:48:39.404Z,1131.49
2022-08-29T05:49:39.401Z,1131.94
2022-08-29T05:50:39.403Z,1132.54
2022-08-29T05:51:39.909Z,1133.48
2022-08-29T05:52:39.436Z,1134.41
2022-08-29T05:53:39.402Z,1135.12
2022-08-29T05:54:39.414Z,1135.46
2022-08-29T05:55:39.408Z,1135.46
2022-08-29T05:56:39.408Z,1135.32
2022-08-29T05:57:39.431Z,1135.01
2022-08-29T05:58:39.414Z,1134.59
2022-08-29T05:59:39.417Z,1134.04
2022-08-29T06:00:39.416Z,1133.19
2022-08-29T06:01:39.417Z,1132.28
2022-08-29T06:02:39.571Z,1131.22
2022-08-29T06:03:45.884Z,1130
2022-08-29T06:04:39.426Z,1128.73
2022-08-29T06:05:39.430Z,1127.38
2022-08-29T06:06:39.428Z,1126.03
2022-08-29T06:07:39.449Z,1124.84
2022-08-29T06:08:39.433Z,1123.54
2022-08-29T06:09:39.433Z,1122.53
2022-08-29T06:10:39.434Z,1121.9
2022-08-29T06:11:39.478Z,1121.57
2022-08-29T06:12:39.456Z,1121.03
2022-08-29T06:13:39.441Z,1120.31
2022-08-29T06:14:39.441Z,1119.07
2022-08-29T06:15:39.473Z,1117.93
2022-08-29T06:16:39.445Z,1117.12
2022-08-29T06:17:39.463Z,1116.28
2022-08-29T06:18:39.447Z,1115.63
2022-08-29T06:19:39.455Z,1114.19
2022-08-29T06:20:39.453Z,1112.86
2022-08-29T06:21:39.457Z,1111.11
2022-08-29T06:22:40.364Z,1109.6
2022-08-29T06:23:39.456Z,1107.91
2022-08-29T06:24:39.459Z,1106.19
2022-08-29T06:25:40.291Z,1104.34
2022-08-29T06:26:39.465Z,1102.43
2022-08-29T06:27:39.483Z,1101.24
2022-08-29T06:28:39.468Z,1099.63
2022-08-29T06:29:43.352Z,1098.04
2022-08-29T06:30:39.500Z,1096.26
2022-08-29T06:31:39.483Z,1094.28
2022-08-29T06:32:39.492Z,1092.42
2022-08-29T06:33:39.478Z,1090.65
2022-08-29T06:34:39.477Z,1088.71
2022-08-29T06:35:39.483Z,1086.63
2022-08-29T06:36:39.490Z,1084.63
2022-08-29T06:37:39.509Z,1083.09
2022-08-29T06:38:39.487Z,1081.93
2022-08-29T06:39:39.488Z,1081.09
2022-08-29T06:40:39.540Z,1079.66
2022-08-29T06:41:39.489Z,1079.66
2022-08-29T06:42:39.520Z,1082.28
2022-08-29T06:43:39.494Z,1085.59
2022-08-29T06:44:43.903Z,1089.25
2022-08-29T06:45:39.500Z,1092.62
2022-08-29T06:46:39.538Z,1095.65
2022-08-29T06:47:39.519Z,1098.31
2022-08-29T06:48:39.505Z,1100.7
2022-08-29T06:49:39.505Z,1102.88
2022-08-29T06:50:42.389Z,1105.07
2022-08-29T06:51:39.510Z,1107.18
2022-08-29T06:52:39.528Z,1109.08
2022-08-29T06:53:39.777Z,1110.69
2022-08-29T06:54:39.519Z,1112.7
2022-08-29T06:55:39.519Z,1114.26
2022-08-29T06:56:39.518Z,1114.85
2022-08-29T06:57:39.535Z,1115.43
2022-08-29T06:58:39.526Z,1116.29
2022-08-29T06:59:39.525Z,1115.28
2022-08-29T07:00:39.525Z,1113.26
2022-08-29T07:01:39.546Z,1111.18
2022-08-29T07:02:39.591Z,1109.06
2022-08-29T07:03:39.529Z,1106.8
2022-08-29T07:04:39.532Z,1104.22
2022-08-29T07:05:39.563Z,1101.31
2022-08-29T07:06:39.538Z,1097.96
2022-08-29T07:07:39.558Z,1094.72
2022-08-29T07:08:43.847Z,1090.96
2022-08-29T07:09:39.544Z,1086.98
2022-08-29T07:10:39.546Z,1083.39
2022-08-29T07:11:41.178Z,1079.88
2022-08-29T07:12:39.572Z,1076.16
2022-08-29T07:13:39.548Z,1073.19
2022-08-29T07:14:39.579Z,1070.22
2022-08-29T07:15:39.604Z,1067.38
2022-08-29T07:16:39.554Z,1064.92
2022-08-29T07:17:39.575Z,1064
2022-08-29T07:18:39.557Z,1064.82
2022-08-29T07:19:39.563Z,1066.52
2022-08-29T07:20:39.561Z,1061.85
2022-08-29T07:21:39.579Z,1057.41
2022-08-29T07:22:39.582Z,1053.17
2022-08-29T07:23:39.568Z,1049.24
2022-08-29T07:24:39.580Z,1045.48
2022-08-29T07:25:42.696Z,1041.26
2022-08-29T07:26:39.573Z,1037.68
2022-08-29T07:27:39.594Z,1034.16
2022-08-29T07:28:42.205Z,1030.97
2022-08-29T07:29:39.579Z,1029.01
2022-08-29T07:30:39.678Z,1025.53
2022-08-29T07:31:39.740Z,1023.84
2022-08-29T07:32:39.601Z,1020.9
2022-08-29T07:33:39.588Z,1016.72
2022-08-29T07:34:39.590Z,1013.38
2022-08-29T07:35:39.592Z,1009.43
2022-08-29T07:36:42.527Z,1005.73
2022-08-29T07:37:39.632Z,1002.53
2022-08-29T07:38:39.614Z,998.9
2022-08-29T07:39:39.598Z,995.24
2022-08-29T07:40:39.663Z,991.8
2022-08-29T07:41:39.602Z,988.02
2022-08-29T07:42:39.630Z,984.58
2022-08-29T07:43:39.606Z,981.96
2022-08-29T07:44:39.613Z,979
2022-08-29T07:45:39.685Z,976.23
2022-08-29T07:46:39.608Z,973.45
2022-08-29T07:47:43.214Z,971.18
2022-08-29T07:48:39.617Z,969.47
2022-08-29T07:49:41.839Z,967.8
2022-08-29T07:50:39.619Z,965.03
2022-08-29T07:51:40.488Z,962.65
2022-08-29T07:52:39.637Z,960.06
2022-08-29T07:53:39.624Z,959.43
2022-08-29T07:54:39.625Z,960.13
2022-08-29T07:55:39.627Z,960.21
2022-08-29T07:56:39.628Z,958.95
2022-08-29T07:57:40.129Z,958
2022-08-29T07:58:42.775Z,956.54
2022-08-29T07:59:39.633Z,955.76
2022-08-29T08:00:39.651Z,954.96
2022-08-29T08:01:39.662Z,953.45
2022-08-29T08:02:39.687Z,952.02
2022-08-29T08:03:39.642Z,950.04
2022-08-29T08:04:39.644Z,948.45
2022-08-29T08:05:39.647Z,947.02
2022-08-29T08:06:39.647Z,945.2
2022-08-29T08:07:40.107Z,943.18
2022-08-29T08:08:39.654Z,942.08
2022-08-29T08:09:39.652Z,939.82
2022-08-29T08:10:39.655Z,939.05
2022-08-29T08:11:39.656Z,937.88
2022-08-29T08:12:39.675Z,936.75
2022-08-29T08:13:39.662Z,936.41
2022-08-29T08:14:39.663Z,936.61
2022-08-29T08:15:39.665Z,935.21
2022-08-29T08:16:44.092Z,932.93
2022-08-29T08:17:43.427Z,931.04
2022-08-29T08:18:39.672Z,929.6
2022-08-29T08:19:39.674Z,927.3
2022-08-29T08:20:39.674Z,924.21
2022-08-29T08:21:40.290Z,920.76
2022-08-29T08:22:39.695Z,919.3
2022-08-29T08:23:39.682Z,916.8
2022-08-29T08:24:39.680Z,916.06
2022-08-29T08:25:39.683Z,915.59
2022-08-29T08:26:39.687Z,914.97
2022-08-29T08:27:42.229Z,913.54
2022-08-29T08:28:39.691Z,910.96
2022-08-29T08:29:39.690Z,908.37
2022-08-29T08:30:42.761Z,905.81
2022-08-29T08:31:39.829Z,906.42
2022-08-29T08:32:42.063Z,906.81
2022-08-29T08:33:39.696Z,908.04
2022-08-29T08:34:39.700Z,908.39
2022-08-29T08:35:41.813Z,908.03
2022-08-29T08:36:41.138Z,906.41
2022-08-29T08:37:39.723Z,904.16
2022-08-29T08:38:39.710Z,901.53
2022-08-29T08:39:39.712Z,898.8
2022-08-29T08:40:39.746Z,897.46
2022-08-29T08:41:39.715Z,895.89
2022-08-29T08:42:39.744Z,893.26
2022-08-29T08:43:39.718Z,890.29
2022-08-29T08:44:39.724Z,886.98
2022-08-29T08:45:39.769Z,883.24
2022-08-29T08:46:39.724Z,881.28
2022-08-29T08:47:39.744Z,879.17
2022-08-29T08:48:39.730Z,876.52
2022-08-29T08:49:39.741Z,874.98
2022-08-29T08:50:39.736Z,872.18
2022-08-29T08:51:39.735Z,868.98
2022-08-29T08:52:39.751Z,865.88
2022-08-29T08:53:39.737Z,863.88
2022-08-29T08:54:39.744Z,862.21
2022-08-29T08:55:39.739Z,859.8
2022-08-29T08:56:39.743Z,857.08
2022-08-29T08:57:39.762Z,854.93
2022-08-29T08:58:39.747Z,852.18
2022-08-29T08:59:39.749Z,848.63
2022-08-29T09:00:39.751Z,843.64
2022-08-29T09:01:39.814Z,839.17
2022-08-29T09:02:39.802Z,836.02
2022-08-29T09:03:39.754Z,832.88
2022-08-29T09:04:39.761Z,829.22
2022-08-29T09:05:39.762Z,826.93
2022-08-29T09:06:39.765Z,825.26
2022-08-29T09:07:39.795Z,823.27
2022-08-29T09:08:39.881Z,821.85
2022-08-29T09:09:39.768Z,819.96
2022-08-29T09:10:39.769Z,818.1
2022-08-29T09:11:39.772Z,815.36
2022-08-29T09:12:39.789Z,810.84
2022-08-29T09:13:39.788Z,808.36
2022-08-29T09:14:39.775Z,806.46
2022-08-29T09:15:39.778Z,803.95
2022-08-29T09:16:39.796Z,800.4
2022-08-29T09:17:39.800Z,797.85
2022-08-29T09:18:39.803Z,794.1
2022-08-29T09:19:39.787Z,791.07
2022-08-29T09:20:39.791Z,788.59
2022-08-29T09:21:41.297Z,786.82
2022-08-29T09:22:39.812Z,783.75
2022-08-29T09:23:39.798Z,780.34
2022-08-29T09:24:39.798Z,775.87
2022-08-29T09:25:39.798Z,772.78
2022-08-29T09:26:39.799Z,769.35
2022-08-29T09:27:39.823Z,767.36
2022-08-29T09:28:39.806Z,765.93
2022-08-29T09:29:39.804Z,765.6
2022-08-29T09:30:39.809Z,768.44
2022-08-29T09:31:39.864Z,773.4
2022-08-29T09:32:39.827Z,776.99
2022-08-29T09:33:39.818Z,777.46
2022-08-29T09:35:04.739Z,775.26
2022-08-29T09:35:39.818Z,772.82
2022-08-29T09:36:39.824Z,769.85
2022-08-29T09:37:39.836Z,766.88
2022-08-29T09:38:39.824Z,762.82
2022-08-29T09:39:39.825Z,759.34
2022-08-29T09:40:39.951Z,755.87
2022-08-29T09:41:39.827Z,752.1
2022-08-29T09:42:39.863Z,749.71
2022-08-29T09:43:39.832Z,748.9
2022-08-29T09:44:39.836Z,748.14
2022-08-29T09:45:39.888Z,747.12
2022-08-29T09:46:39.841Z,745.66
2022-08-29T09:47:39.863Z,744.06
2022-08-29T09:48:39.841Z,744.03
2022-08-29T09:49:39.848Z,743.54
2022-08-29T09:50:39.850Z,742.39
2022-08-29T09:51:39.849Z,740.73
2022-08-29T09:52:40.354Z,737.35
2022-08-29T09:53:39.852Z,732.33
2022-08-29T09:54:39.855Z,726.59
2022-08-29T09:55:39.858Z,721.32
2022-08-29T09:56:39.859Z,717.04
2022-08-29T09:57:39.858Z,712.85
2022-08-29T09:58:40.401Z,708.98
2022-08-29T09:59:41.873Z,705.5
2022-08-29T10:00:39.908Z,702.78
2022-08-29T10:01:39.933Z,701.75
2022-08-29T10:02:39.904Z,699.9
2022-08-29T10:03:42.879Z,696.17
2022-08-29T10:04:39.873Z,691.37
2022-08-29T10:05:39.880Z,687.04
2022-08-29T10:06:43.722Z,682.78
2022-08-29T10:07:39.879Z,680
2022-08-29T10:08:39.880Z,678.61
2022-08-29T10:09:39.884Z,678.3
2022-08-29T10:10:39.885Z,679.82
2022-08-29T10:11:39.897Z,681.01
2022-08-29T10:12:39.891Z,682.39
2022-08-29T10:13:39.892Z,685.7
2022-08-29T10:14:49.711Z,690.17
2022-08-29T10:15:50.272Z,694.61
2022-08-29T10:16:40.031Z,696.32
2022-08-29T10:17:39.897Z,695.97
2022-08-29T10:18:39.904Z,695.98
2022-08-29T10:19:39.917Z,694.61
2022-08-29T10:20:39.906Z,695.63
2022-08-29T10:21:39.906Z,697
2022-08-29T10:22:39.913Z,700.52
2022-08-29T10:23:39.911Z,703.55
2022-08-29T10:24:39.911Z,704.39
2022-08-29T10:25:42.969Z,706.74
2022-08-29T10:26:39.914Z,708.79
2022-08-29T10:27:39.918Z,710.09
2022-08-29T10:28:39.925Z,710.06
2022-08-29T10:29:39.925Z,707.24
2022-08-29T10:30:39.936Z,705.56
2022-08-29T10:31:39.971Z,704.87
2022-08-29T10:32:39.926Z,701.66
2022-08-29T10:33:39.929Z,698.42
2022-08-29T10:34:39.952Z,695.01
2022-08-29T10:35:39.939Z,692.79
2022-08-29T10:36:39.980Z,687.88
2022-08-29T10:37:39.940Z,682.51
2022-08-29T10:38:39.941Z,676.61
2022-08-29T10:39:39.975Z,668.98
2022-08-29T10:40:43.053Z,661.73
2022-08-29T10:41:39.947Z,655.88
2022-08-29T10:42:39.947Z,652.88
2022-08-29T10:43:39.963Z,651.08
2022-08-29T10:44:39.950Z,647.67
2022-08-29T10:45:40.024Z,645.18
2022-08-29T10:46:39.958Z,645.69
2022-08-29T10:47:39.955Z,648.91
2022-08-29T10:48:39.965Z,652.32
2022-08-29T10:49:43.055Z,657.28
2022-08-29T10:50:44.392Z,659.96
2022-08-29T10:51:39.969Z,659.59
2022-08-29T10:52:39.966Z,668.17
2022-08-29T10:53:39.967Z,672.74
2022-08-29T10:54:39.975Z,673.95
2022-08-29T10:55:39.972Z,676.72
2022-08-29T10:56:39.976Z,676.41
2022-08-29T10:57:42.775Z,674.35
2022-08-29T10:58:39.979Z,669.79
2022-08-29T10:59:39.978Z,666.67
2022-08-29T11:00:40.056Z,665.74
2022-08-29T11:01:40.073Z,663.98
2022-08-29T11:02:39.990Z,662.57
2022-08-29T11:03:40.024Z,660.82
2022-08-29T11:04:39.991Z,658.35
2022-08-29T11:05:39.995Z,656.25
2022-08-29T11:06:39.993Z,656.35
2022-08-29T11:07:40.000Z,659.72
2022-08-29T11:08:43.042Z,662.22
2022-08-29T11:09:39.998Z,660.82
2022-08-29T11:10:40.006Z,658.03
2022-08-29T11:11:40.005Z,654.1
2022-08-29T11:12:40.006Z,652.3
2022-08-29T11:13:40.042Z,650.34
2022-08-29T11:14:40.009Z,646.01
2022-08-29T11:15:40.011Z,645.48
2022-08-29T11:16:40.213Z,655.33
2022-08-29T11:17:40.016Z,653.51
2022-08-29T11:18:40.020Z,649.76
2022-08-29T11:19:40.018Z,644.22
2022-08-29T11:20:40.038Z,640.28
2022-08-29T11:21:40.026Z,639.7
2022-08-29T11:22:40.026Z,636.49
2022-08-29T11:23:40.030Z,635.51
2022-08-29T11:24:42.036Z,634.24
2022-08-29T11:25:40.033Z,634.59
2022-08-29T11:26:40.043Z,634.95
2022-08-29T11:27:40.039Z,634.39
2022-08-29T11:28:40.109Z,633.47
2022-08-29T11:29:40.043Z,632.58
2022-08-29T11:30:42.674Z,631.66
2022-08-29T11:31:40.113Z,630.93
2022-08-29T11:32:40.047Z,629.25
2022-08-29T11:33:40.048Z,627.76
2022-08-29T11:34:40.049Z,624.36
2022-08-29T11:35:40.059Z,621.76
2022-08-29T11:36:40.056Z,618.62
2022-08-29T11:37:40.061Z,615.69
2022-08-29T11:38:40.059Z,612
2022-08-29T11:39:40.057Z,610.12
2022-08-29T11:40:47.935Z,609.59
2022-08-29T11:41:40.138Z,612.74
2022-08-29T11:42:55.446Z,616.98
2022-08-29T11:43:40.067Z,619.16
2022-08-29T11:44:40.071Z,621.17
2022-08-29T11:45:40.072Z,619.34
2022-08-29T11:46:40.142Z,620.2
2022-08-29T11:47:40.705Z,625.69
2022-08-29T11:48:40.075Z,624.79
2022-08-29T11:49:40.077Z,622.21
2022-08-29T11:50:40.079Z,619.84
2022-08-29T11:51:40.087Z,618.89
2022-08-29T11:52:40.089Z,618.55
2022-08-29T11:53:40.106Z,621.86
2022-08-29T11:54:40.152Z,626.44
2022-08-29T11:55:40.092Z,629.88
2022-08-29T11:56:40.092Z,634.07
2022-08-29T11:57:40.097Z,639.5
2022-08-29T11:58:40.113Z,643.27
2022-08-29T11:59:40.099Z,644.5
2022-08-29T12:00:40.101Z,642.71
2022-08-29T12:01:40.154Z,644.16
2022-08-29T12:02:40.111Z,644.69
2022-08-29T12:03:40.212Z,645.94
2022-08-29T12:04:40.160Z,646.1
2022-08-29T12:05:40.115Z,645.54
2022-08-29T12:06:40.112Z,643.5
2022-08-29T12:07:40.113Z,641
2022-08-29T12:08:40.138Z,639.39
2022-08-29T12:09:40.145Z,636.84
2022-08-29T12:10:40.161Z,633.41
2022-08-29T12:11:40.121Z,630.7
2022-08-29T12:12:40.126Z,631.77
2022-08-29T12:13:40.141Z,633.36
2022-08-29T12:14:40.125Z,636.84
2022-08-29T12:15:40.129Z,640.07
2022-08-29T12:16:40.143Z,639.54
2022-08-29T12:18:00.729Z,637.01